createdAt,value
2022-12-17T00:00:46.729Z,100623.40
2022-12-17T00:06:15.549Z,100620.40
2022-12-17T00:11:37.982Z,100627.40
2022-12-17T00:17:00.161Z,100641.40
2022-12-17T00:22:22.015Z,100643.00
2022-12-17T00:27:43.918Z,100641.60
2022-12-17T00:33:05.493Z,100644.00
2022-12-17T00:38:36.868Z,100634.40
2022-12-17T00:43:58.463Z,100648.60
2022-12-17T00:49:20.442Z,100652.40
2022-12-17T00:54:42.298Z,100647.80
2022-12-17T01:00:03.999Z,100659.40
2022-12-17T01:05:26.856Z,100651.60
2022-12-17T01:10:51.776Z,100651.20
2022-12-17T01:16:13.800Z,100660.60
2022-12-17T01:21:35.416Z,100669.40
2022-12-17T01:26:58.630Z,100672.40
2022-12-17T01:32:20.127Z,100665.60
2022-12-17T01:37:41.837Z,100661.20
2022-12-17T01:43:05.932Z,100669.20
2022-12-17T01:48:35.078Z,100669.20
2022-12-17T01:54:07.884Z,100669.00
2022-12-17T01:59:31.411Z,100675.60
2022-12-17T02:04:53.306Z,100684.60
2022-12-17T02:10:44.522Z,100682.00
2022-12-17T02:16:14.466Z,100696.40
2022-12-17T02:21:38.578Z,100711.60
2022-12-17T02:27:11.341Z,100720.60
2022-12-17T02:32:35.638Z,100708.60
2022-12-17T02:37:57.305Z,100720.60
2022-12-17T02:43:19.760Z,100714.40
2022-12-17T02:48:43.000Z,100708.60
2022-12-17T02:54:11.726Z,100709.20
2022-12-17T02:59:33.928Z,100706.80
2022-12-17T03:04:55.873Z,100709.00
2022-12-17T03:10:17.670Z,100707.80
2022-12-17T03:15:39.602Z,100706.00
2022-12-17T03:21:01.411Z,100706.20
2022-12-17T03:26:23.321Z,100710.00
2022-12-17T03:31:45.237Z,100712.60
2022-12-17T03:37:06.932Z,100712.00
2022-12-17T03:42:28.727Z,100710.80
2022-12-17T03:47:50.529Z,100722.80
2022-12-17T03:53:12.319Z,100736.20
2022-12-17T03:58:34.274Z,100741.60
2022-12-17T04:03:56.163Z,100739.40
2022-12-17T04:09:18.126Z,100746.80
2022-12-17T04:14:39.976Z,100741.20
2022-12-17T04:20:01.713Z,100739.80
2022-12-17T04:25:24.119Z,100746.40
2022-12-17T04:30:45.859Z,100748.00
2022-12-17T04:36:07.785Z,100750.20
2022-12-17T04:41:29.617Z,100752.40
2022-12-17T04:46:51.477Z,100753.60
2022-12-17T04:52:13.454Z,100760.00
2022-12-17T04:57:35.418Z,100760.60
2022-12-17T05:02:57.237Z,100772.20
2022-12-17T05:08:18.915Z,100784.20
2022-12-17T05:13:40.790Z,100783.00
2022-12-17T05:19:02.761Z,100786.80
2022-12-17T05:24:24.486Z,100785.60
2022-12-17T05:29:46.219Z,100793.40
2022-12-17T05:35:08.019Z,100800.00
2022-12-17T05:40:30.945Z,100811.80
2022-12-17T05:45:52.858Z,100835.60
2022-12-17T05:51:14.716Z,100838.80
2022-12-17T05:56:36.525Z,100852.00
2022-12-17T06:01:58.484Z,100860.20
2022-12-17T06:07:20.174Z,100869.60
2022-12-17T06:12:41.902Z,100881.60
2022-12-17T06:18:16.681Z,100877.40
2022-12-17T06:23:39.183Z,100876.40
2022-12-17T06:29:02.130Z,100895.60
2022-12-17T06:34:23.943Z,100893.60
2022-12-17T06:39:45.890Z,100910.20
2022-12-17T06:45:07.670Z,100905.80
2022-12-17T06:50:29.535Z,100914.00
2022-12-17T06:55:51.358Z,100924.40
2022-12-17T07:01:13.461Z,100926.40
2022-12-17T07:06:35.618Z,100925.40
2022-12-17T07:11:57.462Z,100917.80
2022-12-17T07:17:19.044Z,100926.80
2022-12-17T07:22:40.867Z,100920.80
2022-12-17T07:28:11.828Z,100936.40
2022-12-17T07:33:33.952Z,100943.80
2022-12-17T07:38:55.997Z,100949.40
2022-12-17T07:44:17.722Z,100961.40
2022-12-17T07:49:39.379Z,100963.00
2022-12-17T07:55:01.125Z,100977.20
2022-12-17T08:00:24.005Z,100974.20
2022-12-17T08:05:46.346Z,100981.40
2022-12-17T08:11:08.558Z,100985.00
2022-12-17T08:16:30.463Z,100991.00
2022-12-17T08:21:52.381Z,100986.20
2022-12-17T08:27:14.468Z,100987.20
2022-12-17T08:32:36.986Z,100992.80
2022-12-17T08:37:58.902Z,100995.60
2022-12-17T08:43:20.585Z,101013.00
2022-12-17T08:48:42.239Z,101008.80
2022-12-17T08:54:04.108Z,101003.20
2022-12-17T08:59:25.830Z,100998.60
2022-12-17T09:04:50.340Z,100999.60
2022-12-17T09:10:12.032Z,101007.20
2022-12-17T09:15:33.872Z,101009.60
2022-12-17T09:20:56.284Z,101018.80
2022-12-17T09:26:18.321Z,101022.60
2022-12-17T09:31:40.328Z,101015.40
2022-12-17T09:37:01.983Z,101015.60
2022-12-17T09:42:49.750Z,101013.60
2022-12-17T09:49:02.050Z,101019.80
2022-12-17T09:54:24.078Z,101016.20
2022-12-17T09:59:54.905Z,101016.40
2022-12-17T10:05:17.821Z,101022.60
2022-12-17T10:10:44.980Z,101021.20
2022-12-17T10:16:06.516Z,101013.40
2022-12-17T10:21:31.112Z,101022.60
2022-12-17T10:26:54.455Z,101027.60
2022-12-17T10:32:36.190Z,101038.40
2022-12-17T10:37:57.714Z,101038.40
2022-12-17T10:43:19.792Z,101038.00
2022-12-17T10:48:48.419Z,101040.00
2022-12-17T10:54:11.893Z,101045.20
2022-12-17T10:59:51.723Z,101039.60
2022-12-17T11:05:13.523Z,101036.80
2022-12-17T11:10:40.488Z,101033.00
2022-12-17T11:16:09.381Z,101031.20
2022-12-17T11:21:40.510Z,101039.40
2022-12-17T11:27:05.423Z,101038.60
2022-12-17T11:33:00.294Z,101038.20
2022-12-17T11:38:37.383Z,101057.00
2022-12-17T11:44:17.733Z,101053.60
2022-12-17T11:50:04.341Z,101057.40
2022-12-17T11:55:51.426Z,101057.60
2022-12-17T12:01:27.569Z,101060.80
2022-12-17T12:07:27.883Z,101057.80
2022-12-17T12:13:13.882Z,101058.60
2022-12-17T12:19:06.904Z,101057.60
2022-12-17T12:24:44.501Z,101064.80
2022-12-17T12:30:37.604Z,101063.00
2022-12-17T12:36:00.344Z,101066.40
2022-12-17T12:41:37.761Z,101070.00
2022-12-17T12:47:19.836Z,101072.00
2022-12-17T12:52:47.050Z,101067.40
2022-12-17T12:58:52.077Z,101067.20
2022-12-17T13:04:16.620Z,101078.00
2022-12-17T13:09:34.191Z,101079.20
2022-12-17T13:14:58.918Z,101084.60
2022-12-17T13:20:27.200Z,101091.40
2022-12-17T13:25:30.558Z,101094.00
2022-12-17T13:30:37.160Z,101100.20
2022-12-17T13:36:14.395Z,101106.20
2022-12-17T13:41:21.185Z,101115.40
2022-12-17T13:46:46.885Z,101125.40
2022-12-17T13:52:22.243Z,101130.00
2022-12-17T13:57:26.388Z,101132.80
2022-12-17T14:02:39.436Z,101140.40
2022-12-17T14:07:43.630Z,101140.80
2022-12-17T14:12:47.446Z,101148.80
2022-12-17T14:17:51.764Z,101153.60
2022-12-17T14:23:08.645Z,101164.00
2022-12-17T14:28:50.300Z,101168.20
2022-12-17T14:34:11.488Z,101171.80
2022-12-17T14:39:30.265Z,101182.40
2022-12-17T14:44:34.264Z,101185.60
2022-12-17T14:49:55.627Z,101193.40
2022-12-17T14:54:58.997Z,101197.20
2022-12-17T15:00:02.099Z,101201.00
2022-12-17T15:05:05.772Z,101209.40
2022-12-17T15:10:19.003Z,101210.60
2022-12-17T15:15:22.189Z,101221.20
2022-12-17T15:20:25.688Z,101227.00
2022-12-17T15:25:28.736Z,101226.80
2022-12-17T15:30:31.774Z,101241.60
2022-12-17T15:35:35.540Z,101244.60
2022-12-17T15:40:39.329Z,101235.80
2022-12-17T15:45:45.035Z,101241.40
2022-12-17T15:50:48.645Z,101250.40
2022-12-17T15:56:00.978Z,101254.40
2022-12-17T16:01:06.579Z,101262.20
2022-12-17T16:06:10.128Z,101278.00
2022-12-17T16:11:16.190Z,101275.40
2022-12-17T16:16:19.184Z,101274.80
2022-12-17T16:21:22.142Z,101272.20
2022-12-17T16:26:25.069Z,101279.20
2022-12-17T16:31:28.179Z,101286.60
2022-12-17T16:36:31.169Z,101285.80
2022-12-17T16:41:34.454Z,101291.80
2022-12-17T16:46:41.299Z,101287.60
2022-12-17T16:51:46.931Z,101311.40
2022-12-17T16:56:51.265Z,101306.20
2022-12-17T17:01:56.945Z,101305.40
2022-12-17T17:07:00.112Z,101310.20
2022-12-17T17:12:03.401Z,101308.40
2022-12-17T17:17:06.372Z,101312.20
2022-12-17T17:22:09.324Z,101315.40
2022-12-17T17:27:12.304Z,101324.20
2022-12-17T17:32:15.363Z,101326.20
2022-12-17T17:37:18.432Z,101329.00
2022-12-17T17:42:21.434Z,101340.40
2022-12-17T17:47:24.436Z,101337.40
2022-12-17T17:52:27.413Z,101334.40
2022-12-17T17:57:30.402Z,101338.20
2022-12-17T18:02:33.426Z,101348.40
2022-12-17T18:07:36.623Z,101358.20
2022-12-17T18:12:58.371Z,101366.80
2022-12-17T18:18:01.307Z,101378.00
2022-12-17T18:23:04.331Z,101388.80
2022-12-17T18:28:07.342Z,101394.00
2022-12-17T18:33:10.307Z,101400.80
2022-12-17T18:38:13.397Z,101404.00
2022-12-17T18:43:25.246Z,101412.20
2022-12-17T18:48:28.280Z,101420.40
2022-12-17T18:53:31.939Z,101426.60
2022-12-17T18:58:35.244Z,101431.00
2022-12-17T19:03:38.852Z,101442.80
2022-12-17T19:08:43.170Z,101439.00
2022-12-17T19:13:52.259Z,101446.60
2022-12-17T19:19:03.838Z,101446.00
2022-12-17T19:24:11.899Z,101446.20
2022-12-17T19:29:17.254Z,101445.40
2022-12-17T19:34:20.791Z,101443.40
2022-12-17T19:39:24.196Z,101451.80
2022-12-17T19:44:27.470Z,101446.40
2022-12-17T19:49:30.381Z,101450.20
2022-12-17T19:54:33.333Z,101452.60
2022-12-17T19:59:36.612Z,101469.80
2022-12-17T20:04:39.818Z,101473.00
2022-12-17T20:09:44.756Z,101488.60
2022-12-17T20:14:51.304Z,101491.00
2022-12-17T20:19:57.935Z,101489.80
2022-12-17T20:25:05.011Z,101499.40
2022-12-17T20:30:09.018Z,101501.80
2022-12-17T20:35:11.978Z,101510.20
2022-12-17T20:40:15.047Z,101516.20
2022-12-17T20:45:18.068Z,101518.00
2022-12-17T20:50:21.072Z,101518.00
2022-12-17T20:55:29.321Z,101521.60
2022-12-17T21:00:34.759Z,101525.20
2022-12-17T21:05:37.776Z,101528.60
2022-12-17T21:10:40.740Z,101530.80
2022-12-17T21:15:50.257Z,101537.80
2022-12-17T21:21:01.515Z,101539.60
2022-12-17T21:26:34.678Z,101542.80
2022-12-17T21:31:42.036Z,101552.40
2022-12-17T21:36:45.144Z,101555.00
2022-12-17T21:42:08.729Z,101559.00
2022-12-17T21:47:11.899Z,101560.60
2022-12-17T21:52:14.917Z,101561.60
2022-12-17T21:57:17.902Z,101572.80
2022-12-17T22:02:21.352Z,101579.80
2022-12-17T22:07:31.016Z,101585.80
2022-12-17T22:12:53.778Z,101586.40
2022-12-17T22:17:56.791Z,101588.80
2022-12-17T22:23:01.255Z,101598.20
2022-12-17T22:28:05.352Z,101600.60
2022-12-17T22:33:32.317Z,101599.00
2022-12-17T22:41:36.916Z,101603.80
2022-12-17T22:44:52.176Z,101616.60
2022-12-17T22:49:18.775Z,101616.80
2022-12-17T22:54:21.759Z,101621.00
2022-12-17T22:59:25.358Z,101631.00
2022-12-17T23:04:28.382Z,101637.20
2022-12-17T23:09:31.501Z,101640.80
2022-12-17T23:14:34.491Z,101643.20
2022-12-17T23:19:37.640Z,101649.80
2022-12-17T23:24:40.550Z,101649.80
2022-12-17T23:29:43.478Z,101658.40
2022-12-17T23:34:46.448Z,101662.20
2022-12-17T23:39:49.378Z,101655.00
2022-12-17T23:44:52.363Z,101667.20
2022-12-17T23:49:55.317Z,101672.80
2022-12-17T23:54:58.333Z,101685.60
